createdAt,value
2022-10-01T00:00:22.334Z,9.51
2022-10-01T00:02:24.119Z,9.53
2022-10-01T00:04:27.091Z,9.60
2022-10-01T00:06:28.802Z,9.68
2022-10-01T00:08:32.209Z,9.71
2022-10-01T00:10:34.083Z,9.75
2022-10-01T00:12:35.775Z,9.77
2022-10-01T00:14:37.953Z,9.70
2022-10-01T00:16:39.713Z,9.75
2022-10-01T00:18:43.782Z,9.67
2022-10-01T00:20:45.758Z,9.73
2022-10-01T00:22:47.470Z,9.70
2022-10-01T00:24:49.170Z,9.68
2022-10-01T00:26:51.529Z,9.66
2022-10-01T00:29:05.080Z,9.59
2022-10-01T00:31:08.287Z,9.52
2022-10-01T00:33:10.392Z,9.36
2022-10-01T00:35:12.133Z,9.31
2022-10-01T00:37:13.855Z,9.30
2022-10-01T00:39:15.839Z,9.29
2022-10-01T00:41:18.469Z,9.10
2022-10-01T00:43:22.081Z,9.20
2022-10-01T00:45:24.059Z,9.22
2022-10-01T00:47:36.397Z,9.21
2022-10-01T00:49:39.470Z,9.26
2022-10-01T00:51:49.457Z,9.22
2022-10-01T00:53:51.372Z,9.24
2022-10-01T00:55:57.110Z,9.16
2022-10-01T00:57:59.970Z,9.10
2022-10-01T01:00:04.612Z,9.14
2022-10-01T01:02:06.521Z,9.13
2022-10-01T01:04:08.612Z,9.08
2022-10-01T01:06:10.299Z,9.02
2022-10-01T01:08:12.154Z,9.00
2022-10-01T01:10:16.530Z,9.06
2022-10-01T01:12:21.067Z,9.19
2022-10-01T01:14:55.016Z,9.20
2022-10-01T01:17:04.064Z,9.21
2022-10-01T01:19:27.625Z,9.17
2022-10-01T01:21:45.527Z,9.19
2022-10-01T01:24:19.167Z,9.21
2022-10-01T01:26:36.153Z,9.11
2022-10-01T01:28:46.559Z,9.13
2022-10-01T01:30:51.997Z,8.88
2022-10-01T01:33:03.938Z,9.19
2022-10-01T01:35:10.313Z,9.15
2022-10-01T01:37:15.620Z,9.14
2022-10-01T01:39:19.467Z,9.09
2022-10-01T01:41:24.597Z,9.07
2022-10-01T01:43:37.074Z,9.05
2022-10-01T01:45:40.424Z,9.03
2022-10-01T01:47:45.420Z,9.00
2022-10-01T01:49:47.213Z,9.00
2022-10-01T01:51:59.964Z,9.03
2022-10-01T01:54:01.959Z,8.94
2022-10-01T01:56:06.365Z,8.90
2022-10-01T01:58:08.238Z,8.91
2022-10-01T02:00:11.413Z,8.89
2022-10-01T02:02:19.434Z,8.87
2022-10-01T02:04:31.490Z,8.92
2022-10-01T02:06:39.421Z,8.78
2022-10-01T02:09:33.950Z,8.70
2022-10-01T02:11:47.885Z,8.66
2022-10-01T02:14:04.028Z,8.70
2022-10-01T02:16:24.513Z,8.62
2022-10-01T02:18:46.756Z,8.55
2022-10-01T02:20:54.654Z,8.54
2022-10-01T02:23:01.369Z,8.50
2022-10-01T02:25:05.664Z,8.41
2022-10-01T02:27:23.714Z,8.36
2022-10-01T02:29:25.528Z,8.28
2022-10-01T02:31:29.675Z,8.29
2022-10-01T02:33:34.653Z,8.14
2022-10-01T02:35:37.905Z,8.08
2022-10-01T02:37:43.073Z,8.07
2022-10-01T02:39:48.138Z,8.01
2022-10-01T02:41:53.791Z,7.99
2022-10-01T02:44:04.628Z,7.88
2022-10-01T02:46:38.138Z,7.79
2022-10-01T02:48:39.967Z,7.63
2022-10-01T02:50:48.690Z,7.46
2022-10-01T02:52:59.212Z,7.38
2022-10-01T02:55:05.032Z,7.32
2022-10-01T02:57:07.119Z,7.25
2022-10-01T02:59:08.923Z,7.31
2022-10-01T03:01:11.017Z,7.18
2022-10-01T03:03:12.911Z,7.19
2022-10-01T03:05:15.423Z,7.12
2022-10-01T03:07:17.487Z,7.13
2022-10-01T03:09:19.266Z,7.03
2022-10-01T03:11:20.941Z,6.99
2022-10-01T03:13:22.701Z,6.93
2022-10-01T03:15:24.563Z,6.95
2022-10-01T03:17:26.993Z,6.83
2022-10-01T03:19:28.851Z,6.81
2022-10-01T03:21:31.172Z,6.74
2022-10-01T03:23:33.125Z,6.77
2022-10-01T03:25:34.886Z,6.68
2022-10-01T03:27:36.862Z,6.65
2022-10-01T03:29:38.613Z,6.58
2022-10-01T03:31:40.446Z,6.48
2022-10-01T03:33:42.418Z,6.41
2022-10-01T03:35:44.148Z,6.37
2022-10-01T03:37:45.910Z,6.35
2022-10-01T03:39:47.648Z,6.34
2022-10-01T03:41:49.377Z,6.35
2022-10-01T03:43:51.458Z,6.29
2022-10-01T03:45:53.314Z,6.24
2022-10-01T03:47:55.052Z,6.15
2022-10-01T03:49:56.802Z,6.14
2022-10-01T03:51:58.598Z,6.10
2022-10-01T03:54:00.363Z,6.10
2022-10-01T03:56:02.402Z,6.03
2022-10-01T03:58:04.175Z,5.95
2022-10-01T04:00:06.221Z,5.89
2022-10-01T04:02:08.156Z,5.85
2022-10-01T04:04:10.039Z,5.79
2022-10-01T04:06:11.952Z,5.82
2022-10-01T04:08:14.582Z,5.72
2022-10-01T04:10:16.455Z,5.81
2022-10-01T04:12:18.110Z,5.76
2022-10-01T04:14:20.032Z,5.71
2022-10-01T04:16:21.858Z,5.68
2022-10-01T04:18:23.661Z,5.71
2022-10-01T04:20:25.547Z,5.68
2022-10-01T04:22:27.312Z,5.65
2022-10-01T04:24:29.003Z,5.65
2022-10-01T04:26:31.025Z,5.61
2022-10-01T04:28:32.977Z,5.61
2022-10-01T04:30:37.904Z,5.63
2022-10-01T04:32:39.744Z,5.55
2022-10-01T04:34:41.496Z,5.59
2022-10-01T04:36:43.226Z,5.56
2022-10-01T04:38:44.998Z,5.54
2022-10-01T04:40:46.692Z,5.53
2022-10-01T04:42:48.435Z,5.61
2022-10-01T04:44:50.314Z,5.61
2022-10-01T04:46:52.471Z,5.68
2022-10-01T04:48:54.183Z,5.64
2022-10-01T04:50:56.169Z,5.67
2022-10-01T04:53:00.214Z,5.70
2022-10-01T04:55:01.915Z,5.74
2022-10-01T04:57:03.698Z,5.77
2022-10-01T04:59:05.607Z,5.79
2022-10-01T05:01:07.451Z,5.88
2022-10-01T05:03:09.185Z,5.86
2022-10-01T05:05:10.958Z,5.92
2022-10-01T05:07:12.652Z,5.95
2022-10-01T05:09:14.382Z,5.99
2022-10-01T05:11:16.160Z,6.02
2022-10-01T05:13:18.580Z,6.06
2022-10-01T05:15:20.439Z,6.04
2022-10-01T05:17:23.839Z,6.15
2022-10-01T05:19:28.076Z,6.22
2022-10-01T05:21:29.909Z,6.30
2022-10-01T05:23:31.767Z,6.40
2022-10-01T05:25:33.494Z,6.47
2022-10-01T05:27:35.173Z,6.58
2022-10-01T05:29:36.906Z,6.65
2022-10-01T05:31:39.179Z,6.78
2022-10-01T05:33:41.276Z,6.90
2022-10-01T05:35:43.215Z,7.03
2022-10-01T05:37:44.938Z,7.22
2022-10-01T05:39:46.916Z,7.42
2022-10-01T05:41:48.859Z,7.44
2022-10-01T05:43:50.567Z,7.56
2022-10-01T05:45:52.421Z,7.60
2022-10-01T05:47:58.660Z,7.79
2022-10-01T05:50:00.350Z,8.07
2022-10-01T05:52:02.098Z,8.03
2022-10-01T05:54:03.898Z,8.07
2022-10-01T05:56:08.889Z,8.03
2022-10-01T05:58:13.060Z,8.10
2022-10-01T06:00:15.002Z,8.24
2022-10-01T06:02:16.928Z,8.31
2022-10-01T06:04:19.096Z,8.50
2022-10-01T06:06:25.059Z,8.57
2022-10-01T06:08:26.801Z,8.70
2022-10-01T06:10:28.707Z,8.78
2022-10-01T06:12:30.624Z,9.05
2022-10-01T06:14:32.307Z,9.06
2022-10-01T06:16:34.401Z,9.10
2022-10-01T06:18:36.233Z,9.20
2022-10-01T06:20:39.612Z,9.28
2022-10-01T06:22:43.591Z,9.31
2022-10-01T06:24:45.462Z,9.39
2022-10-01T06:26:47.175Z,9.62
2022-10-01T06:28:50.036Z,9.76
2022-10-01T06:30:51.862Z,9.87
2022-10-01T06:32:54.500Z,10.07
2022-10-01T06:34:56.302Z,10.28
2022-10-01T06:36:58.033Z,10.46
2022-10-01T06:38:59.761Z,10.48
2022-10-01T06:41:02.768Z,10.34
2022-10-01T06:43:04.904Z,10.27
2022-10-01T06:45:06.933Z,10.62
2022-10-01T06:47:09.450Z,10.63
2022-10-01T06:49:11.389Z,10.75
2022-10-01T06:51:13.096Z,11.00
2022-10-01T06:53:16.326Z,10.71
2022-10-01T06:55:19.093Z,10.60
2022-10-01T06:57:20.791Z,10.27
2022-10-01T06:59:22.532Z,10.66
2022-10-01T07:01:24.329Z,11.06
2022-10-01T07:03:26.087Z,11.38
2022-10-01T07:05:28.257Z,11.98
2022-10-01T07:07:34.406Z,12.22
2022-10-01T07:09:36.129Z,12.60
2022-10-01T07:11:37.983Z,12.76
2022-10-01T07:13:39.663Z,13.00
2022-10-01T07:15:41.383Z,13.18
2022-10-01T07:17:47.285Z,12.82
2022-10-01T07:19:48.965Z,12.85
2022-10-01T07:21:50.686Z,12.63
2022-10-01T07:23:52.599Z,12.47
2022-10-01T07:25:54.361Z,12.65
2022-10-01T07:28:06.526Z,13.24
2022-10-01T07:30:09.039Z,13.31
2022-10-01T07:32:10.943Z,13.05
2022-10-01T07:34:12.662Z,12.65
2022-10-01T07:36:15.090Z,12.93
2022-10-01T07:38:16.932Z,12.77
2022-10-01T07:40:18.869Z,11.96
2022-10-01T07:42:20.824Z,11.97
2022-10-01T07:44:22.714Z,11.97
2022-10-01T07:46:24.392Z,11.67
2022-10-01T07:48:26.965Z,11.53
2022-10-01T07:50:30.028Z,11.75
2022-10-01T07:52:31.755Z,11.60
2022-10-01T07:54:35.030Z,11.27
2022-10-01T07:56:36.888Z,11.74
2022-10-01T07:58:38.565Z,12.20
2022-10-01T08:00:40.426Z,12.44
2022-10-01T08:02:47.736Z,12.51
2022-10-01T08:04:49.481Z,12.89
2022-10-01T08:06:52.747Z,13.00
2022-10-01T08:08:54.550Z,13.33
2022-10-01T08:10:56.253Z,13.70
2022-10-01T08:13:03.338Z,13.83
2022-10-01T08:15:05.569Z,13.96
2022-10-01T08:17:07.366Z,14.27
2022-10-01T08:19:09.244Z,14.39
2022-10-01T08:21:11.136Z,14.19
2022-10-01T08:23:14.536Z,14.36
2022-10-01T08:25:16.478Z,14.21
2022-10-01T08:27:18.255Z,14.16
2022-10-01T08:29:20.024Z,14.00
2022-10-01T08:31:21.978Z,14.25
2022-10-01T08:33:23.955Z,14.44
2022-10-01T08:35:27.072Z,14.51
2022-10-01T08:37:29.969Z,14.95
2022-10-01T08:39:31.869Z,14.83
2022-10-01T08:41:42.407Z,14.72
2022-10-01T08:43:44.269Z,14.70
2022-10-01T08:45:53.020Z,14.97
2022-10-01T08:48:20.857Z,15.00
2022-10-01T08:50:55.764Z,15.20
2022-10-01T08:53:02.004Z,14.92
2022-10-01T08:55:10.149Z,14.50
2022-10-01T08:57:16.076Z,14.45
2022-10-01T08:59:27.649Z,14.33
2022-10-01T09:01:29.613Z,14.57
2022-10-01T09:03:32.312Z,14.88
2022-10-01T09:06:03.608Z,14.94
2022-10-01T09:08:28.424Z,15.14
2022-10-01T09:10:54.032Z,15.10
2022-10-01T09:13:27.604Z,15.09
2022-10-01T09:15:44.170Z,14.98
2022-10-01T09:18:14.230Z,14.97
2022-10-01T09:20:19.011Z,15.27
2022-10-01T09:22:44.313Z,15.13
2022-10-01T09:24:54.677Z,15.34
2022-10-01T09:26:56.470Z,15.37
2022-10-01T09:29:01.187Z,15.51
2022-10-01T09:31:25.097Z,15.19
2022-10-01T09:33:33.857Z,15.51
2022-10-01T09:36:00.207Z,15.81
2022-10-01T09:38:24.998Z,16.35
2022-10-01T09:40:35.164Z,16.04
2022-10-01T09:42:37.068Z,15.76
2022-10-01T09:44:39.060Z,15.34
2022-10-01T09:46:41.278Z,15.02
2022-10-01T09:49:01.690Z,15.27
2022-10-01T09:51:12.690Z,15.07
2022-10-01T09:53:20.220Z,14.97
2022-10-01T09:55:39.396Z,14.96
2022-10-01T09:57:44.857Z,15.02
2022-10-01T09:59:57.319Z,15.01
2022-10-01T10:02:02.206Z,15.03
2022-10-01T10:04:04.058Z,15.10
2022-10-01T10:06:06.233Z,15.12
2022-10-01T10:08:15.595Z,15.18
2022-10-01T10:10:33.428Z,15.27
2022-10-01T10:12:36.154Z,15.26
2022-10-01T10:14:39.514Z,15.21
2022-10-01T10:16:45.293Z,15.35
2022-10-01T10:18:49.490Z,15.60
2022-10-01T10:20:55.327Z,15.66
2022-10-01T10:23:32.383Z,15.98
2022-10-01T10:25:34.405Z,15.58
2022-10-01T10:27:36.148Z,15.42
2022-10-01T10:29:38.033Z,15.73
2022-10-01T10:31:44.061Z,15.99
2022-10-01T10:33:52.179Z,15.99
2022-10-01T10:36:06.029Z,15.99
2022-10-01T10:38:18.452Z,15.96
2022-10-01T10:40:29.103Z,15.41
2022-10-01T10:42:31.949Z,15.12
2022-10-01T10:44:37.613Z,15.21
2022-10-01T10:46:44.003Z,15.52
2022-10-01T10:48:55.440Z,15.65
2022-10-01T10:51:05.623Z,15.53
2022-10-01T10:53:21.983Z,15.04
2022-10-01T10:55:31.309Z,14.98
2022-10-01T10:57:34.594Z,15.08
2022-10-01T10:59:36.463Z,15.28
2022-10-01T11:01:43.037Z,15.33
2022-10-01T11:03:49.206Z,15.44
2022-10-01T11:05:51.026Z,15.67
2022-10-01T11:07:59.888Z,15.54
2022-10-01T11:10:13.343Z,15.26
2022-10-01T11:12:32.177Z,15.31
2022-10-01T11:14:37.056Z,15.39
2022-10-01T11:16:59.724Z,15.53
2022-10-01T11:19:23.138Z,15.80
2022-10-01T11:21:43.391Z,15.84
2022-10-01T11:24:19.375Z,16.22
2022-10-01T11:26:53.415Z,16.21
2022-10-01T11:28:58.148Z,16.43
2022-10-01T11:31:31.714Z,16.72
2022-10-01T11:33:53.396Z,16.60
2022-10-01T11:36:19.426Z,16.24
2022-10-01T11:38:42.981Z,16.39
2022-10-01T11:40:54.256Z,16.27
2022-10-01T11:43:03.725Z,16.43
2022-10-01T11:45:19.338Z,16.29
2022-10-01T11:47:28.907Z,16.07
2022-10-01T11:50:05.832Z,15.66
2022-10-01T11:52:37.983Z,15.67
2022-10-01T11:55:07.026Z,15.91
2022-10-01T11:57:14.670Z,15.71
2022-10-01T11:59:29.634Z,15.93
2022-10-01T12:01:49.851Z,15.96
2022-10-01T12:03:54.617Z,16.04
2022-10-01T12:05:58.236Z,16.07
2022-10-01T12:08:18.365Z,16.05
2022-10-01T12:10:36.161Z,15.94
2022-10-01T12:12:46.320Z,15.93
2022-10-01T12:15:05.555Z,16.01
2022-10-01T12:17:28.584Z,16.29
2022-10-01T12:19:34.983Z,16.21
2022-10-01T12:21:44.977Z,16.04
2022-10-01T12:23:53.998Z,16.18
2022-10-01T12:26:00.043Z,15.89
2022-10-01T12:28:10.180Z,16.05
2022-10-01T12:30:23.023Z,15.87
2022-10-01T12:32:30.469Z,16.04
2022-10-01T12:34:55.023Z,16.24
2022-10-01T12:37:30.907Z,15.94
2022-10-01T12:39:43.339Z,15.90
2022-10-01T12:41:56.679Z,15.60
2022-10-01T12:44:36.442Z,15.84
2022-10-01T12:47:03.341Z,15.90
2022-10-01T12:49:10.667Z,15.86
2022-10-01T12:51:38.349Z,15.96
2022-10-01T12:54:03.280Z,15.77
2022-10-01T12:56:09.382Z,15.85
2022-10-01T12:58:11.272Z,15.87
2022-10-01T13:00:25.150Z,15.70
2022-10-01T13:03:29.139Z,15.67
2022-10-01T13:05:40.601Z,15.72
2022-10-01T13:07:51.375Z,15.78
2022-10-01T13:10:35.710Z,15.85
2022-10-01T13:12:59.577Z,15.89
2022-10-01T13:15:02.308Z,15.51
2022-10-01T13:17:17.597Z,15.48
2022-10-01T13:19:23.510Z,15.45
2022-10-01T13:21:33.274Z,15.42
2022-10-01T13:23:59.255Z,15.54
2022-10-01T13:26:17.117Z,15.68
2022-10-01T13:28:36.601Z,15.71
2022-10-01T13:30:56.668Z,15.69
2022-10-01T13:33:00.228Z,15.65
2022-10-01T13:35:23.153Z,15.76
2022-10-01T13:37:37.939Z,15.75
2022-10-01T13:39:39.722Z,15.77
2022-10-01T13:41:42.451Z,15.76
2022-10-01T13:44:10.607Z,15.97
2022-10-01T13:46:13.007Z,16.11
2022-10-01T13:48:19.451Z,15.96
2022-10-01T13:50:26.059Z,15.84
2022-10-01T13:52:27.954Z,15.71
2022-10-01T13:54:35.628Z,15.55
2022-10-01T13:56:38.467Z,15.50
2022-10-01T13:58:44.179Z,15.46
2022-10-01T14:00:50.258Z,15.42
2022-10-01T14:03:25.460Z,15.45
2022-10-01T14:05:35.415Z,15.40
2022-10-01T14:07:39.631Z,15.36
2022-10-01T14:09:54.909Z,15.46
2022-10-01T14:12:04.671Z,15.40
2022-10-01T14:14:20.935Z,15.38
2022-10-01T14:16:23.271Z,15.19
2022-10-01T14:18:30.258Z,15.23
2022-10-01T14:20:49.301Z,15.34
2022-10-01T14:23:11.337Z,15.16
2022-10-01T14:25:39.611Z,15.22
2022-10-01T14:27:51.984Z,15.19
2022-10-01T14:30:13.436Z,15.34
2022-10-01T14:32:37.312Z,15.23
2022-10-01T14:34:55.624Z,15.27
2022-10-01T14:36:58.119Z,15.25
2022-10-01T14:39:18.419Z,15.24
2022-10-01T14:41:24.089Z,15.19
2022-10-01T14:43:29.179Z,15.19
2022-10-01T14:45:31.085Z,15.22
2022-10-01T14:47:32.812Z,15.06
2022-10-01T14:49:34.856Z,15.01
2022-10-01T14:51:36.648Z,15.02
2022-10-01T14:53:42.737Z,14.96
2022-10-01T14:55:45.515Z,15.06
2022-10-01T14:57:50.303Z,14.81
2022-10-01T14:59:52.321Z,14.91
2022-10-01T15:01:57.393Z,14.97
2022-10-01T15:03:59.302Z,14.92
2022-10-01T15:06:10.757Z,14.89
2022-10-01T15:08:16.758Z,14.73
2022-10-01T15:10:20.639Z,14.56
2022-10-01T15:12:23.280Z,14.58
2022-10-01T15:14:25.931Z,14.51
2022-10-01T15:16:29.055Z,14.34
2022-10-01T15:18:31.596Z,14.25
2022-10-01T15:20:33.757Z,14.18
2022-10-01T15:22:35.535Z,14.18
2022-10-01T15:24:43.284Z,14.27
2022-10-01T15:26:48.097Z,14.29
2022-10-01T15:28:50.018Z,14.27
2022-10-01T15:30:52.035Z,14.24
2022-10-01T15:32:54.910Z,14.28
2022-10-01T15:35:00.122Z,14.35
2022-10-01T15:37:02.721Z,14.33
2022-10-01T15:39:32.848Z,14.20
2022-10-01T15:41:34.874Z,14.11
2022-10-01T15:43:39.936Z,14.17
2022-10-01T15:45:41.944Z,14.13
2022-10-01T15:47:54.418Z,14.15
2022-10-01T15:50:11.052Z,14.07
2022-10-01T15:52:16.097Z,13.95
2022-10-01T15:54:17.922Z,13.85
2022-10-01T15:56:23.154Z,13.90
2022-10-01T15:58:35.209Z,13.98
2022-10-01T16:01:03.065Z,13.90
2022-10-01T16:03:05.020Z,13.82
2022-10-01T16:05:07.391Z,13.82
2022-10-01T16:07:19.539Z,13.85
2022-10-01T16:09:25.055Z,13.78
2022-10-01T16:11:27.369Z,13.66
2022-10-01T16:13:41.379Z,13.58
2022-10-01T16:15:42.913Z,13.59
2022-10-01T16:17:54.105Z,13.50
2022-10-01T16:20:01.462Z,13.35
2022-10-01T16:22:15.129Z,13.26
2022-10-01T16:24:26.715Z,13.26
2022-10-01T16:26:32.827Z,13.32
2022-10-01T16:28:35.868Z,13.38
2022-10-01T16:30:37.691Z,13.29
2022-10-01T16:32:39.906Z,13.29
2022-10-01T16:34:41.657Z,13.28
2022-10-01T16:36:43.766Z,13.36
2022-10-01T16:38:45.755Z,13.31
2022-10-01T16:40:47.727Z,13.33
2022-10-01T16:42:50.113Z,13.29
2022-10-01T16:44:52.278Z,13.21
2022-10-01T16:46:53.991Z,13.12
2022-10-01T16:48:55.814Z,13.04
2022-10-01T16:50:57.619Z,13.17
2022-10-01T16:52:59.322Z,13.12
2022-10-01T16:55:01.072Z,13.10
2022-10-01T16:57:02.856Z,13.13
2022-10-01T16:59:04.539Z,13.06
2022-10-01T17:01:10.374Z,13.00
2022-10-01T17:03:16.129Z,13.05
2022-10-01T17:05:23.861Z,12.99
2022-10-01T17:07:25.650Z,12.98
2022-10-01T17:09:27.397Z,13.02
2022-10-01T17:11:29.333Z,12.94
2022-10-01T17:13:33.128Z,12.98
2022-10-01T17:15:34.879Z,12.92
2022-10-01T17:17:36.578Z,12.91
2022-10-01T17:19:38.442Z,12.84
2022-10-01T17:21:40.975Z,12.80
2022-10-01T17:23:42.690Z,12.92
2022-10-01T17:25:44.997Z,12.73
2022-10-01T17:27:47.342Z,12.85
2022-10-01T17:29:49.127Z,12.96
2022-10-01T17:31:50.844Z,12.80
2022-10-01T17:33:52.539Z,12.72
2022-10-01T17:35:54.291Z,12.79
2022-10-01T17:37:56.090Z,12.81
2022-10-01T17:39:57.844Z,12.70
2022-10-01T17:41:59.597Z,12.57
2022-10-01T17:44:01.625Z,12.83
2022-10-01T17:46:03.440Z,12.82
2022-10-01T17:48:05.314Z,12.83
2022-10-01T17:50:07.224Z,12.77
2022-10-01T17:52:09.393Z,12.69
2022-10-01T17:54:11.150Z,12.80
2022-10-01T17:56:18.062Z,12.76
2022-10-01T17:58:19.934Z,12.82
2022-10-01T18:00:21.683Z,12.71
2022-10-01T18:02:40.943Z,12.71
2022-10-01T18:04:43.592Z,12.67
2022-10-01T18:06:45.334Z,12.66
2022-10-01T18:08:55.953Z,12.64
2022-10-01T18:11:09.806Z,12.66
2022-10-01T18:13:11.529Z,12.65
2022-10-01T18:15:13.349Z,12.65
2022-10-01T18:17:15.382Z,12.63
2022-10-01T18:21:39.122Z,12.57
2022-10-01T18:23:42.192Z,12.57
2022-10-01T18:25:43.896Z,12.56
2022-10-01T18:27:47.165Z,12.41
2022-10-01T18:29:48.955Z,12.49
2022-10-01T18:31:53.730Z,12.54
2022-10-01T18:34:01.433Z,12.51
2022-10-01T18:36:06.102Z,12.49
2022-10-01T18:38:17.391Z,12.53
2022-10-01T18:40:28.105Z,12.40
2022-10-01T18:42:54.306Z,12.45
2022-10-01T18:44:58.348Z,12.39
2022-10-01T18:47:18.211Z,12.20
2022-10-01T18:49:53.593Z,12.35
2022-10-01T18:52:10.688Z,12.46
2022-10-01T18:54:43.925Z,12.50
2022-10-01T18:57:21.585Z,12.61
2022-10-01T18:59:39.925Z,12.54
2022-10-01T19:01:56.717Z,12.55
2022-10-01T19:04:10.590Z,12.66
2022-10-01T19:06:33.705Z,12.62
2022-10-01T19:08:51.415Z,12.27
2022-10-01T19:11:08.837Z,12.11
2022-10-01T19:13:19.533Z,12.10
2022-10-01T19:15:37.309Z,12.05
2022-10-01T19:18:07.336Z,12.04
2022-10-01T19:20:43.828Z,11.97
2022-10-01T19:23:28.555Z,12.07
2022-10-01T19:25:49.081Z,11.99
2022-10-01T19:28:09.247Z,11.82
2022-10-01T19:30:14.285Z,11.63
2022-10-01T19:32:26.286Z,11.34
2022-10-01T19:34:37.912Z,11.18
2022-10-01T19:36:45.522Z,11.12
2022-10-01T19:38:50.121Z,11.15
2022-10-01T19:41:22.887Z,11.04
2022-10-01T19:43:37.641Z,10.95
2022-10-01T19:46:06.072Z,10.89
2022-10-01T19:48:19.293Z,10.83
2022-10-01T19:50:44.264Z,10.82
2022-10-01T19:52:46.279Z,10.76
2022-10-01T19:54:54.247Z,10.75
2022-10-01T19:57:05.894Z,10.76
2022-10-01T19:59:12.214Z,10.68
2022-10-01T20:01:21.844Z,10.85
2022-10-01T20:03:42.549Z,10.89
2022-10-01T20:05:52.178Z,10.99
2022-10-01T20:08:06.216Z,10.96
2022-10-01T20:10:10.880Z,11.05
2022-10-01T20:12:44.289Z,11.09
2022-10-01T20:15:01.545Z,11.06
2022-10-01T20:17:12.730Z,11.05
2022-10-01T20:19:28.238Z,11.16
2022-10-01T20:21:35.976Z,11.20
2022-10-01T20:23:54.123Z,11.21
2022-10-01T20:26:14.690Z,11.27
2022-10-01T20:28:41.373Z,11.32
2022-10-01T20:30:59.706Z,11.33
2022-10-01T20:33:36.446Z,11.32
2022-10-01T20:36:01.430Z,11.36
2022-10-01T20:38:15.708Z,11.27
2022-10-01T20:40:38.961Z,11.31
2022-10-01T20:42:48.490Z,11.31
2022-10-01T20:44:52.334Z,11.30
2022-10-01T20:47:00.356Z,11.28
2022-10-01T20:49:08.914Z,11.24
2022-10-01T20:51:17.613Z,11.27
2022-10-01T20:53:45.084Z,11.33
2022-10-01T20:55:55.444Z,11.31
2022-10-01T20:58:02.518Z,11.11
2022-10-01T21:00:26.050Z,11.40
2022-10-01T21:02:40.063Z,11.36
2022-10-01T21:04:51.030Z,11.40
2022-10-01T21:06:57.604Z,11.42
2022-10-01T21:09:09.974Z,11.44
2022-10-01T21:11:18.678Z,11.33
2022-10-01T21:13:29.585Z,11.25
2022-10-01T21:15:59.045Z,11.25
2022-10-01T21:18:16.535Z,11.22
2022-10-01T21:20:27.339Z,11.30
2022-10-01T21:22:44.081Z,11.31
2022-10-01T21:24:55.471Z,11.26
2022-10-01T21:27:47.860Z,11.36
2022-10-01T21:30:12.335Z,11.34
2022-10-01T21:32:19.985Z,11.22
2022-10-01T21:34:46.732Z,11.24
2022-10-01T21:36:58.961Z,11.06
2022-10-01T21:39:20.845Z,10.95
2022-10-01T21:41:42.648Z,11.03
2022-10-01T21:44:02.949Z,10.90
2022-10-01T21:46:36.787Z,11.01
2022-10-01T21:49:00.361Z,10.93
2022-10-01T21:51:14.682Z,10.84
2022-10-01T21:53:35.169Z,10.74
2022-10-01T21:56:04.424Z,10.67
2022-10-01T21:58:32.497Z,10.69
2022-10-01T22:00:34.326Z,10.70
2022-10-01T22:02:47.772Z,10.65
2022-10-01T22:04:56.198Z,10.60
2022-10-01T22:07:26.607Z,10.56
2022-10-01T22:09:57.140Z,10.76
2022-10-01T22:12:02.128Z,10.73
2022-10-01T22:14:13.550Z,10.84
2022-10-01T22:16:16.432Z,10.96
2022-10-01T22:18:25.342Z,10.87
2022-10-01T22:20:33.681Z,10.66
2022-10-01T22:22:39.771Z,10.72
2022-10-01T22:24:48.415Z,10.65
2022-10-01T22:26:54.750Z,10.70
2022-10-01T22:28:59.622Z,10.74
2022-10-01T22:31:05.179Z,10.76
2022-10-01T22:33:22.274Z,10.82
2022-10-01T22:35:32.794Z,10.73
2022-10-01T22:37:42.353Z,10.72
2022-10-01T22:39:54.584Z,10.58
2022-10-01T22:42:07.439Z,10.72
2022-10-01T22:44:15.392Z,10.69
2022-10-01T22:46:42.319Z,10.76
2022-10-01T22:49:21.469Z,10.82
2022-10-01T22:51:44.904Z,10.86
2022-10-01T22:54:05.029Z,10.85
2022-10-01T22:56:06.827Z,10.64
2022-10-01T22:58:35.528Z,10.90
2022-10-01T23:01:05.421Z,10.86
2022-10-01T23:03:14.655Z,10.80
2022-10-01T23:05:40.696Z,10.85
2022-10-01T23:08:27.887Z,10.82
2022-10-01T23:10:45.764Z,10.83
2022-10-01T23:12:57.988Z,10.79
2022-10-01T23:15:05.611Z,10.76
2022-10-01T23:17:25.421Z,10.71
2022-10-01T23:19:39.061Z,10.78
2022-10-01T23:21:48.603Z,10.72
2022-10-01T23:24:13.038Z,10.77
2022-10-01T23:26:20.810Z,10.75
2022-10-01T23:29:00.310Z,10.65
2022-10-01T23:31:26.148Z,10.57
2022-10-01T23:33:27.914Z,10.60
2022-10-01T23:35:38.618Z,10.47
2022-10-01T23:37:58.248Z,10.48
2022-10-01T23:40:11.182Z,10.51
2022-10-01T23:42:15.664Z,10.48
2022-10-01T23:44:38.715Z,10.39
2022-10-01T23:46:42.966Z,10.35
2022-10-01T23:48:57.951Z,10.36
2022-10-01T23:51:21.626Z,10.33
2022-10-01T23:53:31.133Z,10.19
2022-10-01T23:55:52.324Z,10.18
2022-10-01T23:58:02.381Z,10.24
